sensor_id;sensor_type;location;lat;lon;timestamp;P1;durP1;ratioP1;P2;durP2;ratioP2
11921;SDS011;6021;51.182;3.160;2023-03-03T00:01:12;32.23;;;23.50;;
11921;SDS011;6021;51.182;3.160;2023-03-03T00:03:41;32.00;;;22.70;;
11921;SDS011;6021;51.182;3.160;2023-03-03T00:06:11;31.90;;;23.30;;
11921;SDS011;6021;51.182;3.160;2023-03-03T00:08:41;33.20;;;22.23;;
11921;SDS011;6021;51.182;3.160;2023-03-03T00:11:09;33.00;;;24.13;;
11921;SDS011;6021;51.182;3.160;2023-03-03T00:13:51;30.23;;;22.63;;
11921;SDS011;6021;51.182;3.160;2023-03-03T00:18:52;31.17;;;23.13;;
11921;SDS011;6021;51.182;3.160;2023-03-03T00:21:29;29.20;;;22.20;;
11921;SDS011;6021;51.182;3.160;2023-03-03T00:24:19;28.27;;;21.73;;
11921;SDS011;6021;51.182;3.160;2023-03-03T00:27:22;29.60;;;23.17;;
11921;SDS011;6021;51.182;3.160;2023-03-03T00:29:49;30.43;;;23.13;;
11921;SDS011;6021;51.182;3.160;2023-03-03T00:32:27;32.67;;;22.20;;
11921;SDS011;6021;51.182;3.160;2023-03-03T00:35:25;30.97;;;22.23;;
11921;SDS011;6021;51.182;3.160;2023-03-03T00:38:00;30.77;;;23.07;;
11921;SDS011;6021;51.182;3.160;2023-03-03T00:45:55;28.87;;;22.00;;
11921;SDS011;6021;51.182;3.160;2023-03-03T00:48:26;27.93;;;21.63;;
11921;SDS011;6021;51.182;3.160;2023-03-03T00:50:59;29.73;;;22.40;;
11921;SDS011;6021;51.182;3.160;2023-03-03T00:53:29;30.00;;;21.80;;
11921;SDS011;6021;51.182;3.160;2023-03-03T00:55:57;28.83;;;22.37;;
11921;SDS011;6021;51.182;3.160;2023-03-03T00:58:26;27.10;;;21.13;;
11921;SDS011;6021;51.182;3.160;2023-03-03T01:00:55;26.27;;;20.23;;
11921;SDS011;6021;51.182;3.160;2023-03-03T01:03:24;28.97;;;21.93;;
11921;SDS011;6021;51.182;3.160;2023-03-03T01:05:53;28.50;;;22.13;;
11921;SDS011;6021;51.182;3.160;2023-03-03T01:08:23;26.73;;;21.77;;
11921;SDS011;6021;51.182;3.160;2023-03-03T01:10:54;25.00;;;20.00;;
11921;SDS011;6021;51.182;3.160;2023-03-03T01:13:28;28.07;;;20.80;;
11921;SDS011;6021;51.182;3.160;2023-03-03T01:15:59;25.13;;;19.70;;
11921;SDS011;6021;51.182;3.160;2023-03-03T01:18:28;25.07;;;19.97;;
11921;SDS011;6021;51.182;3.160;2023-03-03T01:20:58;26.57;;;20.07;;
11921;SDS011;6021;51.182;3.160;2023-03-03T01:23:27;27.37;;;21.00;;
11921;SDS011;6021;51.182;3.160;2023-03-03T01:25:56;25.90;;;20.63;;
11921;SDS011;6021;51.182;3.160;2023-03-03T01:28:25;28.10;;;20.13;;
11921;SDS011;6021;51.182;3.160;2023-03-03T01:30:58;27.60;;;20.13;;
11921;SDS011;6021;51.182;3.160;2023-03-03T01:33:32;25.40;;;19.80;;
11921;SDS011;6021;51.182;3.160;2023-03-03T01:36:01;26.40;;;19.77;;
11921;SDS011;6021;51.182;3.160;2023-03-03T01:38:30;23.20;;;19.30;;
11921;SDS011;6021;51.182;3.160;2023-03-03T01:41:00;27.27;;;21.30;;
11921;SDS011;6021;51.182;3.160;2023-03-03T01:43:30;24.10;;;19.83;;
11921;SDS011;6021;51.182;3.160;2023-03-03T01:48:38;22.87;;;17.33;;
11921;SDS011;6021;51.182;3.160;2023-03-03T01:51:14;23.10;;;19.17;;
11921;SDS011;6021;51.182;3.160;2023-03-03T01:53:53;24.60;;;19.20;;
11921;SDS011;6021;51.182;3.160;2023-03-03T01:56:31;21.80;;;17.90;;
11921;SDS011;6021;51.182;3.160;2023-03-03T01:59:03;23.10;;;17.27;;
11921;SDS011;6021;51.182;3.160;2023-03-03T02:01:34;23.60;;;16.77;;
11921;SDS011;6021;51.182;3.160;2023-03-03T02:04:04;19.40;;;16.43;;
11921;SDS011;6021;51.182;3.160;2023-03-03T02:06:36;19.17;;;15.50;;
11921;SDS011;6021;51.182;3.160;2023-03-03T02:09:17;20.90;;;16.77;;
11921;SDS011;6021;51.182;3.160;2023-03-03T02:11:48;19.50;;;16.57;;
11921;SDS011;6021;51.182;3.160;2023-03-03T02:14:22;20.70;;;17.30;;
11921;SDS011;6021;51.182;3.160;2023-03-03T02:16:51;18.83;;;15.47;;
11921;SDS011;6021;51.182;3.160;2023-03-03T02:19:34;20.23;;;16.13;;
11921;SDS011;6021;51.182;3.160;2023-03-03T02:21:52;17.87;;;15.20;;
11921;SDS011;6021;51.182;3.160;2023-03-03T02:26:54;17.33;;;14.53;;
11921;SDS011;6021;51.182;3.160;2023-03-03T02:29:22;17.73;;;14.93;;
11921;SDS011;6021;51.182;3.160;2023-03-03T02:31:51;17.73;;;15.43;;
11921;SDS011;6021;51.182;3.160;2023-03-03T02:34:22;17.77;;;15.10;;
11921;SDS011;6021;51.182;3.160;2023-03-03T02:36:50;16.27;;;14.43;;
11921;SDS011;6021;51.182;3.160;2023-03-03T02:39:20;19.17;;;15.40;;
11921;SDS011;6021;51.182;3.160;2023-03-03T02:44:25;16.93;;;14.80;;
11921;SDS011;6021;51.182;3.160;2023-03-03T02:46:54;16.40;;;14.60;;
11921;SDS011;6021;51.182;3.160;2023-03-03T02:49:25;16.13;;;14.50;;
11921;SDS011;6021;51.182;3.160;2023-03-03T02:51:54;16.83;;;14.90;;
11921;SDS011;6021;51.182;3.160;2023-03-03T02:54:23;16.77;;;14.70;;
11921;SDS011;6021;51.182;3.160;2023-03-03T02:56:53;16.00;;;14.17;;
11921;SDS011;6021;51.182;3.160;2023-03-03T02:59:22;17.33;;;13.97;;
11921;SDS011;6021;51.182;3.160;2023-03-03T03:01:50;16.17;;;14.10;;
11921;SDS011;6021;51.182;3.160;2023-03-03T03:04:23;17.57;;;14.70;;
11921;SDS011;6021;51.182;3.160;2023-03-03T03:06:53;16.37;;;14.27;;
11921;SDS011;6021;51.182;3.160;2023-03-03T03:09:22;15.93;;;14.23;;
11921;SDS011;6021;51.182;3.160;2023-03-03T03:11:55;15.73;;;13.93;;
11921;SDS011;6021;51.182;3.160;2023-03-03T03:14:25;16.50;;;13.73;;
11921;SDS011;6021;51.182;3.160;2023-03-03T03:16:53;17.20;;;14.70;;
11921;SDS011;6021;51.182;3.160;2023-03-03T03:19:22;16.60;;;14.20;;
11921;SDS011;6021;51.182;3.160;2023-03-03T03:21:56;17.13;;;14.07;;
11921;SDS011;6021;51.182;3.160;2023-03-03T03:24:23;15.70;;;14.10;;
11921;SDS011;6021;51.182;3.160;2023-03-03T03:26:54;16.47;;;14.50;;
11921;SDS011;6021;51.182;3.160;2023-03-03T03:29:23;16.87;;;15.07;;
11921;SDS011;6021;51.182;3.160;2023-03-03T03:31:51;17.43;;;15.17;;
11921;SDS011;6021;51.182;3.160;2023-03-03T03:34:19;15.83;;;14.07;;
11921;SDS011;6021;51.182;3.160;2023-03-03T03:36:48;17.07;;;13.67;;
11921;SDS011;6021;51.182;3.160;2023-03-03T03:39:17;15.63;;;13.30;;
11921;SDS011;6021;51.182;3.160;2023-03-03T03:41:45;16.50;;;14.17;;
11921;SDS011;6021;51.182;3.160;2023-03-03T03:44:13;15.33;;;13.10;;
11921;SDS011;6021;51.182;3.160;2023-03-03T03:46:41;15.37;;;12.63;;
11921;SDS011;6021;51.182;3.160;2023-03-03T03:49:10;15.13;;;13.00;;
11921;SDS011;6021;51.182;3.160;2023-03-03T03:51:39;15.23;;;13.07;;
11921;SDS011;6021;51.182;3.160;2023-03-03T03:54:08;13.77;;;12.30;;
11921;SDS011;6021;51.182;3.160;2023-03-03T03:56:36;14.37;;;12.83;;
11921;SDS011;6021;51.182;3.160;2023-03-03T03:59:05;15.83;;;13.10;;
11921;SDS011;6021;51.182;3.160;2023-03-03T04:01:34;14.10;;;12.17;;
11921;SDS011;6021;51.182;3.160;2023-03-03T04:04:02;14.37;;;11.70;;
11921;SDS011;6021;51.182;3.160;2023-03-03T04:06:31;13.57;;;11.43;;
11921;SDS011;6021;51.182;3.160;2023-03-03T04:08:59;15.47;;;12.47;;
11921;SDS011;6021;51.182;3.160;2023-03-03T04:11:27;14.33;;;11.97;;
11921;SDS011;6021;51.182;3.160;2023-03-03T04:13:56;14.73;;;11.73;;
11921;SDS011;6021;51.182;3.160;2023-03-03T04:16:24;12.60;;;10.73;;
11921;SDS011;6021;51.182;3.160;2023-03-03T04:18:53;14.93;;;10.57;;
11921;SDS011;6021;51.182;3.160;2023-03-03T04:21:21;13.57;;;10.83;;
11921;SDS011;6021;51.182;3.160;2023-03-03T04:23:50;11.70;;;10.37;;
11921;SDS011;6021;51.182;3.160;2023-03-03T04:26:19;12.03;;;10.00;;
11921;SDS011;6021;51.182;3.160;2023-03-03T04:28:49;12.87;;;9.77;;
11921;SDS011;6021;51.182;3.160;2023-03-03T04:31:18;11.50;;;9.17;;
11921;SDS011;6021;51.182;3.160;2023-03-03T04:33:49;13.00;;;9.63;;
11921;SDS011;6021;51.182;3.160;2023-03-03T04:36:18;11.90;;;9.20;;
11921;SDS011;6021;51.182;3.160;2023-03-03T04:38:47;10.93;;;9.10;;
11921;SDS011;6021;51.182;3.160;2023-03-03T04:41:15;11.67;;;8.67;;
11921;SDS011;6021;51.182;3.160;2023-03-03T04:43:43;11.03;;;8.03;;
11921;SDS011;6021;51.182;3.160;2023-03-03T04:46:13;9.77;;;7.97;;
11921;SDS011;6021;51.182;3.160;2023-03-03T04:48:42;9.77;;;8.13;;
11921;SDS011;6021;51.182;3.160;2023-03-03T04:51:10;8.83;;;7.37;;
11921;SDS011;6021;51.182;3.160;2023-03-03T04:53:38;7.83;;;7.03;;
11921;SDS011;6021;51.182;3.160;2023-03-03T04:56:07;9.50;;;7.23;;
11921;SDS011;6021;51.182;3.160;2023-03-03T04:58:35;9.67;;;6.97;;
11921;SDS011;6021;51.182;3.160;2023-03-03T05:01:04;9.47;;;6.97;;
11921;SDS011;6021;51.182;3.160;2023-03-03T05:03:32;7.27;;;6.10;;
11921;SDS011;6021;51.182;3.160;2023-03-03T05:06:01;8.40;;;6.37;;
11921;SDS011;6021;51.182;3.160;2023-03-03T05:08:29;7.13;;;6.40;;
11921;SDS011;6021;51.182;3.160;2023-03-03T05:10:58;6.77;;;6.07;;
11921;SDS011;6021;51.182;3.160;2023-03-03T05:13:28;7.57;;;5.80;;
11921;SDS011;6021;51.182;3.160;2023-03-03T05:15:57;6.87;;;5.90;;
11921;SDS011;6021;51.182;3.160;2023-03-03T05:18:27;7.60;;;5.90;;
11921;SDS011;6021;51.182;3.160;2023-03-03T05:20:57;8.37;;;5.83;;
11921;SDS011;6021;51.182;3.160;2023-03-03T05:23:30;6.37;;;5.17;;
11921;SDS011;6021;51.182;3.160;2023-03-03T05:25:59;5.97;;;5.47;;
11921;SDS011;6021;51.182;3.160;2023-03-03T05:28:29;6.67;;;5.70;;
11921;SDS011;6021;51.182;3.160;2023-03-03T05:30:59;7.27;;;5.10;;
11921;SDS011;6021;51.182;3.160;2023-03-03T05:33:27;5.93;;;5.30;;
11921;SDS011;6021;51.182;3.160;2023-03-03T05:35:59;6.40;;;5.30;;
11921;SDS011;6021;51.182;3.160;2023-03-03T05:38:34;7.27;;;5.57;;
11921;SDS011;6021;51.182;3.160;2023-03-03T05:41:07;7.63;;;5.63;;
11921;SDS011;6021;51.182;3.160;2023-03-03T05:43:35;7.10;;;5.33;;
11921;SDS011;6021;51.182;3.160;2023-03-03T05:46:04;6.13;;;5.17;;
11921;SDS011;6021;51.182;3.160;2023-03-03T05:48:37;5.87;;;4.83;;
11921;SDS011;6021;51.182;3.160;2023-03-03T05:51:05;5.03;;;4.53;;
11921;SDS011;6021;51.182;3.160;2023-03-03T05:53:35;5.87;;;4.70;;
11921;SDS011;6021;51.182;3.160;2023-03-03T05:56:04;6.73;;;5.03;;
11921;SDS011;6021;51.182;3.160;2023-03-03T05:58:32;6.97;;;4.77;;
11921;SDS011;6021;51.182;3.160;2023-03-03T06:01:01;5.37;;;4.70;;
11921;SDS011;6021;51.182;3.160;2023-03-03T06:03:29;6.47;;;4.60;;
11921;SDS011;6021;51.182;3.160;2023-03-03T06:05:58;5.20;;;4.53;;
11921;SDS011;6021;51.182;3.160;2023-03-03T06:08:27;5.53;;;4.07;;
11921;SDS011;6021;51.182;3.160;2023-03-03T06:10:56;6.27;;;4.30;;
11921;SDS011;6021;51.182;3.160;2023-03-03T06:13:24;6.47;;;3.87;;
11921;SDS011;6021;51.182;3.160;2023-03-03T06:15:54;4.33;;;3.47;;
11921;SDS011;6021;51.182;3.160;2023-03-03T06:18:22;6.27;;;3.80;;
11921;SDS011;6021;51.182;3.160;2023-03-03T06:20:56;3.93;;;3.57;;
11921;SDS011;6021;51.182;3.160;2023-03-03T06:23:23;4.27;;;3.50;;
11921;SDS011;6021;51.182;3.160;2023-03-03T06:25:54;5.40;;;3.50;;
11921;SDS011;6021;51.182;3.160;2023-03-03T06:28:22;5.27;;;3.20;;
11921;SDS011;6021;51.182;3.160;2023-03-03T06:30:53;5.27;;;3.33;;
11921;SDS011;6021;51.182;3.160;2023-03-03T06:33:23;4.67;;;3.20;;
11921;SDS011;6021;51.182;3.160;2023-03-03T06:35:52;5.53;;;3.60;;
11921;SDS011;6021;51.182;3.160;2023-03-03T06:38:22;7.00;;;3.70;;
11921;SDS011;6021;51.182;3.160;2023-03-03T06:40:52;6.67;;;3.60;;
11921;SDS011;6021;51.182;3.160;2023-03-03T06:43:20;7.13;;;3.30;;
11921;SDS011;6021;51.182;3.160;2023-03-03T06:45:51;4.90;;;3.27;;
11921;SDS011;6021;51.182;3.160;2023-03-03T06:48:24;4.47;;;3.23;;
11921;SDS011;6021;51.182;3.160;2023-03-03T06:50:53;6.23;;;3.57;;
11921;SDS011;6021;51.182;3.160;2023-03-03T06:53:21;5.77;;;3.00;;
11921;SDS011;6021;51.182;3.160;2023-03-03T06:55:55;5.03;;;3.90;;
11921;SDS011;6021;51.182;3.160;2023-03-03T06:58:25;4.43;;;3.23;;
11921;SDS011;6021;51.182;3.160;2023-03-03T07:00:59;5.77;;;3.23;;
11921;SDS011;6021;51.182;3.160;2023-03-03T07:03:33;6.67;;;3.90;;
11921;SDS011;6021;51.182;3.160;2023-03-03T07:06:07;5.67;;;3.67;;
11921;SDS011;6021;51.182;3.160;2023-03-03T07:08:36;4.90;;;3.80;;
11921;SDS011;6021;51.182;3.160;2023-03-03T07:11:14;5.87;;;3.60;;
11921;SDS011;6021;51.182;3.160;2023-03-03T07:13:48;6.07;;;3.20;;
11921;SDS011;6021;51.182;3.160;2023-03-03T07:16:18;7.80;;;3.83;;
11921;SDS011;6021;51.182;3.160;2023-03-03T07:19:00;5.30;;;3.23;;
11921;SDS011;6021;51.182;3.160;2023-03-03T07:21:36;6.90;;;3.30;;
11921;SDS011;6021;51.182;3.160;2023-03-03T07:24:13;5.60;;;3.60;;
11921;SDS011;6021;51.182;3.160;2023-03-03T07:26:45;5.50;;;3.30;;
11921;SDS011;6021;51.182;3.160;2023-03-03T07:29:29;7.27;;;4.00;;
11921;SDS011;6021;51.182;3.160;2023-03-03T07:31:56;4.97;;;3.90;;
11921;SDS011;6021;51.182;3.160;2023-03-03T07:34:39;4.93;;;3.60;;
11921;SDS011;6021;51.182;3.160;2023-03-03T07:37:10;6.83;;;4.60;;
11921;SDS011;6021;51.182;3.160;2023-03-03T07:39:58;7.70;;;4.90;;
11921;SDS011;6021;51.182;3.160;2023-03-03T07:42:34;6.80;;;4.50;;
11921;SDS011;6021;51.182;3.160;2023-03-03T07:45:01;6.77;;;4.30;;
11921;SDS011;6021;51.182;3.160;2023-03-03T07:47:36;9.80;;;6.97;;
11921;SDS011;6021;51.182;3.160;2023-03-03T07:50:12;7.20;;;6.47;;
11921;SDS011;6021;51.182;3.160;2023-03-03T07:52:44;8.73;;;7.50;;
11921;SDS011;6021;51.182;3.160;2023-03-03T07:57:53;10.20;;;7.97;;
11921;SDS011;6021;51.182;3.160;2023-03-03T08:03:09;15.30;;;13.10;;
11921;SDS011;6021;51.182;3.160;2023-03-03T08:05:45;18.90;;;16.90;;
11921;SDS011;6021;51.182;3.160;2023-03-03T08:08:37;22.60;;;20.13;;
11921;SDS011;6021;51.182;3.160;2023-03-03T08:10:59;21.63;;;19.03;;
11921;SDS011;6021;51.182;3.160;2023-03-03T08:18:45;32.17;;;28.90;;
11921;SDS011;6021;51.182;3.160;2023-03-03T08:21:24;24.00;;;21.50;;
11921;SDS011;6021;51.182;3.160;2023-03-03T08:23:54;26.43;;;22.53;;
11921;SDS011;6021;51.182;3.160;2023-03-03T08:26:25;26.70;;;23.93;;
11921;SDS011;6021;51.182;3.160;2023-03-03T08:28:58;33.50;;;30.10;;
11921;SDS011;6021;51.182;3.160;2023-03-03T08:31:27;21.50;;;19.20;;
11921;SDS011;6021;51.182;3.160;2023-03-03T08:33:56;26.87;;;23.97;;
11921;SDS011;6021;51.182;3.160;2023-03-03T08:36:27;28.77;;;23.70;;
11921;SDS011;6021;51.182;3.160;2023-03-03T08:38:55;22.90;;;19.53;;
11921;SDS011;6021;51.182;3.160;2023-03-03T08:41:28;23.27;;;19.40;;
11921;SDS011;6021;51.182;3.160;2023-03-03T08:43:56;24.17;;;21.13;;
11921;SDS011;6021;51.182;3.160;2023-03-03T08:46:25;25.63;;;21.77;;
11921;SDS011;6021;51.182;3.160;2023-03-03T08:48:54;23.60;;;20.80;;
11921;SDS011;6021;51.182;3.160;2023-03-03T08:51:22;23.23;;;19.00;;
11921;SDS011;6021;51.182;3.160;2023-03-03T08:53:51;25.20;;;20.77;;
11921;SDS011;6021;51.182;3.160;2023-03-03T08:56:20;25.07;;;19.30;;
11921;SDS011;6021;51.182;3.160;2023-03-03T08:58:48;25.23;;;19.50;;
11921;SDS011;6021;51.182;3.160;2023-03-03T09:01:18;25.43;;;19.93;;
11921;SDS011;6021;51.182;3.160;2023-03-03T09:03:46;23.77;;;20.07;;
11921;SDS011;6021;51.182;3.160;2023-03-03T09:06:16;28.03;;;21.27;;
11921;SDS011;6021;51.182;3.160;2023-03-03T09:08:44;27.73;;;20.40;;
11921;SDS011;6021;51.182;3.160;2023-03-03T09:11:13;25.23;;;19.53;;
11921;SDS011;6021;51.182;3.160;2023-03-03T09:13:43;24.73;;;19.47;;
11921;SDS011;6021;51.182;3.160;2023-03-03T09:16:12;25.07;;;19.77;;
11921;SDS011;6021;51.182;3.160;2023-03-03T09:18:41;23.07;;;19.80;;
11921;SDS011;6021;51.182;3.160;2023-03-03T09:21:25;25.13;;;21.33;;
11921;SDS011;6021;51.182;3.160;2023-03-03T09:23:55;23.63;;;19.37;;
11921;SDS011;6021;51.182;3.160;2023-03-03T09:26:28;24.73;;;20.20;;
11921;SDS011;6021;51.182;3.160;2023-03-03T09:29:07;23.13;;;19.97;;
11921;SDS011;6021;51.182;3.160;2023-03-03T09:31:37;22.63;;;19.47;;
11921;SDS011;6021;51.182;3.160;2023-03-03T09:36:52;21.90;;;18.20;;
11921;SDS011;6021;51.182;3.160;2023-03-03T09:39:23;20.93;;;17.60;;
11921;SDS011;6021;51.182;3.160;2023-03-03T09:47:37;19.77;;;15.50;;
11921;SDS011;6021;51.182;3.160;2023-03-03T09:53:01;19.20;;;15.10;;
11921;SDS011;6021;51.182;3.160;2023-03-03T10:01:47;15.80;;;14.20;;
11921;SDS011;6021;51.182;3.160;2023-03-03T10:04:18;16.60;;;13.70;;
11921;SDS011;6021;51.182;3.160;2023-03-03T10:17:57;15.77;;;14.10;;
11921;SDS011;6021;51.182;3.160;2023-03-03T10:37:27;13.40;;;11.93;;
11921;SDS011;6021;51.182;3.160;2023-03-03T10:40:25;14.93;;;12.30;;
11921;SDS011;6021;51.182;3.160;2023-03-03T10:48:40;13.20;;;11.70;;
11921;SDS011;6021;51.182;3.160;2023-03-03T10:54:34;12.10;;;10.70;;
11921;SDS011;6021;51.182;3.160;2023-03-03T10:57:11;12.60;;;11.00;;
11921;SDS011;6021;51.182;3.160;2023-03-03T11:02:37;12.17;;;10.73;;
11921;SDS011;6021;51.182;3.160;2023-03-03T11:05:23;11.53;;;10.37;;
11921;SDS011;6021;51.182;3.160;2023-03-03T11:08:12;11.47;;;10.20;;
11921;SDS011;6021;51.182;3.160;2023-03-03T11:24:31;9.07;;;8.17;;
11921;SDS011;6021;51.182;3.160;2023-03-03T11:27:09;11.57;;;8.47;;
11921;SDS011;6021;51.182;3.160;2023-03-03T11:32:45;8.63;;;7.77;;
11921;SDS011;6021;51.182;3.160;2023-03-03T11:35:24;10.17;;;8.90;;
11921;SDS011;6021;51.182;3.160;2023-03-03T11:38:08;9.83;;;8.47;;
11921;SDS011;6021;51.182;3.160;2023-03-03T11:40:54;10.47;;;8.53;;
11921;SDS011;6021;51.182;3.160;2023-03-03T11:43:33;11.20;;;9.00;;
11921;SDS011;6021;51.182;3.160;2023-03-03T11:46:04;9.00;;;8.10;;
11921;SDS011;6021;51.182;3.160;2023-03-03T11:48:45;8.77;;;7.87;;
11921;SDS011;6021;51.182;3.160;2023-03-03T11:51:40;9.60;;;8.60;;
11921;SDS011;6021;51.182;3.160;2023-03-03T11:57:18;8.20;;;6.90;;
11921;SDS011;6021;51.182;3.160;2023-03-03T12:05:08;8.67;;;7.50;;
11921;SDS011;6021;51.182;3.160;2023-03-03T12:07:53;7.87;;;6.73;;
11921;SDS011;6021;51.182;3.160;2023-03-03T12:13:18;8.00;;;6.40;;
11921;SDS011;6021;51.182;3.160;2023-03-03T12:23:59;8.43;;;7.53;;
11921;SDS011;6021;51.182;3.160;2023-03-03T12:26:40;6.77;;;5.57;;
11921;SDS011;6021;51.182;3.160;2023-03-03T12:29:24;8.67;;;7.77;;
11921;SDS011;6021;51.182;3.160;2023-03-03T12:34:39;8.33;;;6.87;;
11921;SDS011;6021;51.182;3.160;2023-03-03T12:37:32;7.87;;;7.00;;
11921;SDS011;6021;51.182;3.160;2023-03-03T12:40:08;6.80;;;6.20;;
11921;SDS011;6021;51.182;3.160;2023-03-03T12:45:47;8.03;;;6.17;;
11921;SDS011;6021;51.182;3.160;2023-03-03T12:51:17;6.67;;;5.97;;
11921;SDS011;6021;51.182;3.160;2023-03-03T12:56:53;6.57;;;5.90;;
11921;SDS011;6021;51.182;3.160;2023-03-03T12:59:30;10.97;;;6.57;;
11921;SDS011;6021;51.182;3.160;2023-03-03T13:05:06;9.07;;;6.20;;
11921;SDS011;6021;51.182;3.160;2023-03-03T13:07:58;7.83;;;6.57;;
11921;SDS011;6021;51.182;3.160;2023-03-03T13:10:38;7.30;;;6.20;;
11921;SDS011;6021;51.182;3.160;2023-03-03T13:19:01;7.37;;;6.43;;
11921;SDS011;6021;51.182;3.160;2023-03-03T13:21:35;7.33;;;6.63;;
11921;SDS011;6021;51.182;3.160;2023-03-03T13:24:09;8.30;;;7.10;;
11921;SDS011;6021;51.182;3.160;2023-03-03T13:26:46;8.17;;;7.37;;
11921;SDS011;6021;51.182;3.160;2023-03-03T13:29:19;8.80;;;7.90;;
11921;SDS011;6021;51.182;3.160;2023-03-03T13:31:55;8.80;;;7.90;;
11921;SDS011;6021;51.182;3.160;2023-03-03T13:35:34;10.17;;;9.07;;
11921;SDS011;6021;51.182;3.160;2023-03-03T13:40:04;9.20;;;8.23;;
11921;SDS011;6021;51.182;3.160;2023-03-03T14:02:56;10.37;;;8.23;;
11921;SDS011;6021;51.182;3.160;2023-03-03T14:13:59;8.40;;;7.60;;
11921;SDS011;6021;51.182;3.160;2023-03-03T14:22:21;8.67;;;7.53;;
11921;SDS011;6021;51.182;3.160;2023-03-03T14:25:07;9.40;;;8.37;;
11921;SDS011;6021;51.182;3.160;2023-03-03T14:30:33;8.37;;;6.30;;
11921;SDS011;6021;51.182;3.160;2023-03-03T14:35:42;7.23;;;6.07;;
11921;SDS011;6021;51.182;3.160;2023-03-03T14:38:15;9.50;;;5.20;;
11921;SDS011;6021;51.182;3.160;2023-03-03T14:40:45;7.07;;;5.57;;
11921;SDS011;6021;51.182;3.160;2023-03-03T14:43:25;6.03;;;4.60;;
11921;SDS011;6021;51.182;3.160;2023-03-03T14:45:54;5.47;;;4.60;;
11921;SDS011;6021;51.182;3.160;2023-03-03T14:48:23;7.63;;;5.17;;
11921;SDS011;6021;51.182;3.160;2023-03-03T14:53:37;7.40;;;4.50;;
11921;SDS011;6021;51.182;3.160;2023-03-03T14:56:25;5.33;;;3.90;;
11921;SDS011;6021;51.182;3.160;2023-03-03T15:01:46;3.33;;;2.93;;
11921;SDS011;6021;51.182;3.160;2023-03-03T15:06:53;4.57;;;2.63;;
11921;SDS011;6021;51.182;3.160;2023-03-03T15:09:37;4.23;;;2.50;;
11921;SDS011;6021;51.182;3.160;2023-03-03T15:12:19;3.83;;;2.33;;
11921;SDS011;6021;51.182;3.160;2023-03-03T15:14:49;3.60;;;2.10;;
11921;SDS011;6021;51.182;3.160;2023-03-03T15:17:35;3.97;;;2.50;;
11921;SDS011;6021;51.182;3.160;2023-03-03T15:36:46;3.70;;;2.40;;
11921;SDS011;6021;51.182;3.160;2023-03-03T15:42:26;3.80;;;1.90;;
11921;SDS011;6021;51.182;3.160;2023-03-03T15:50:25;2.93;;;1.40;;
11921;SDS011;6021;51.182;3.160;2023-03-03T15:56:06;3.87;;;1.77;;
11921;SDS011;6021;51.182;3.160;2023-03-03T15:58:47;3.60;;;1.57;;
11921;SDS011;6021;51.182;3.160;2023-03-03T16:01:24;5.43;;;1.60;;
11921;SDS011;6021;51.182;3.160;2023-03-03T16:04:04;5.50;;;1.50;;
11921;SDS011;6021;51.182;3.160;2023-03-03T16:09:31;4.50;;;1.40;;
11921;SDS011;6021;51.182;3.160;2023-03-03T16:12:08;2.73;;;1.53;;
11921;SDS011;6021;51.182;3.160;2023-03-03T16:20:44;3.20;;;1.20;;
11921;SDS011;6021;51.182;3.160;2023-03-03T16:23:19;2.20;;;0.90;;
11921;SDS011;6021;51.182;3.160;2023-03-03T16:28:46;2.73;;;1.50;;
11921;SDS011;6021;51.182;3.160;2023-03-03T16:34:20;2.97;;;1.30;;
11921;SDS011;6021;51.182;3.160;2023-03-03T16:39:55;2.50;;;1.40;;
11921;SDS011;6021;51.182;3.160;2023-03-03T16:42:42;2.27;;;1.13;;
11921;SDS011;6021;51.182;3.160;2023-03-03T16:50:47;3.23;;;1.40;;
11921;SDS011;6021;51.182;3.160;2023-03-03T16:56:27;3.83;;;1.10;;
11921;SDS011;6021;51.182;3.160;2023-03-03T17:01:52;2.87;;;1.20;;
11921;SDS011;6021;51.182;3.160;2023-03-03T17:10:13;3.30;;;1.20;;
11921;SDS011;6021;51.182;3.160;2023-03-03T17:27:24;2.37;;;1.10;;
11921;SDS011;6021;51.182;3.160;2023-03-03T17:35:18;2.50;;;1.30;;
11921;SDS011;6021;51.182;3.160;2023-03-03T17:38:11;2.97;;;1.30;;
11921;SDS011;6021;51.182;3.160;2023-03-03T17:43:56;4.10;;;1.20;;
11921;SDS011;6021;51.182;3.160;2023-03-03T17:52:07;1.67;;;1.20;;
11921;SDS011;6021;51.182;3.160;2023-03-03T17:54:46;2.90;;;1.20;;
11921;SDS011;6021;51.182;3.160;2023-03-03T17:57:34;2.47;;;1.20;;
11921;SDS011;6021;51.182;3.160;2023-03-03T18:00:19;1.23;;;1.10;;
11921;SDS011;6021;51.182;3.160;2023-03-03T18:08:40;3.50;;;1.70;;
11921;SDS011;6021;51.182;3.160;2023-03-03T18:14:12;2.10;;;1.20;;
11921;SDS011;6021;51.182;3.160;2023-03-03T18:17:09;3.50;;;1.30;;
11921;SDS011;6021;51.182;3.160;2023-03-03T18:22:43;3.03;;;1.50;;
11921;SDS011;6021;51.182;3.160;2023-03-03T18:25:25;1.20;;;1.10;;
11921;SDS011;6021;51.182;3.160;2023-03-03T18:28:15;1.43;;;1.30;;
11921;SDS011;6021;51.182;3.160;2023-03-03T18:33:40;1.30;;;1.03;;
11921;SDS011;6021;51.182;3.160;2023-03-03T18:38:59;2.93;;;1.10;;
11921;SDS011;6021;51.182;3.160;2023-03-03T18:41:32;1.30;;;1.20;;
11921;SDS011;6021;51.182;3.160;2023-03-03T18:46:51;4.83;;;1.20;;
11921;SDS011;6021;51.182;3.160;2023-03-03T18:49:46;2.20;;;1.20;;
11921;SDS011;6021;51.182;3.160;2023-03-03T18:52:19;2.37;;;1.10;;
11921;SDS011;6021;51.182;3.160;2023-03-03T18:55:53;2.00;;;1.10;;
11921;SDS011;6021;51.182;3.160;2023-03-03T18:57:37;1.53;;;1.10;;
11921;SDS011;6021;51.182;3.160;2023-03-03T19:00:11;2.13;;;1.10;;
11921;SDS011;6021;51.182;3.160;2023-03-03T19:02:52;1.37;;;1.00;;
11921;SDS011;6021;51.182;3.160;2023-03-03T19:05:26;2.60;;;1.20;;
11921;SDS011;6021;51.182;3.160;2023-03-03T19:08:03;2.37;;;1.40;;
11921;SDS011;6021;51.182;3.160;2023-03-03T19:10:48;3.30;;;1.30;;
11921;SDS011;6021;51.182;3.160;2023-03-03T19:16:04;2.53;;;1.30;;
11921;SDS011;6021;51.182;3.160;2023-03-03T19:29:41;2.50;;;1.17;;
11921;SDS011;6021;51.182;3.160;2023-03-03T19:32:17;2.50;;;1.30;;
11921;SDS011;6021;51.182;3.160;2023-03-03T19:34:53;2.53;;;1.53;;
11921;SDS011;6021;51.182;3.160;2023-03-03T19:37:46;3.00;;;1.40;;
11921;SDS011;6021;51.182;3.160;2023-03-03T19:40:31;2.70;;;1.20;;
11921;SDS011;6021;51.182;3.160;2023-03-03T19:49:15;3.90;;;1.60;;
11921;SDS011;6021;51.182;3.160;2023-03-03T19:52:06;5.30;;;1.50;;
11921;SDS011;6021;51.182;3.160;2023-03-03T19:57:58;5.73;;;1.83;;
11921;SDS011;6021;51.182;3.160;2023-03-03T20:00:48;2.83;;;1.73;;
11921;SDS011;6021;51.182;3.160;2023-03-03T20:06:36;7.00;;;2.63;;
11921;SDS011;6021;51.182;3.160;2023-03-03T20:11:59;3.60;;;1.90;;
11921;SDS011;6021;51.182;3.160;2023-03-03T20:14:42;6.20;;;2.20;;
11921;SDS011;6021;51.182;3.160;2023-03-03T20:28:00;4.93;;;1.80;;
11921;SDS011;6021;51.182;3.160;2023-03-03T20:33:20;3.37;;;2.00;;
11921;SDS011;6021;51.182;3.160;2023-03-03T20:38:53;6.77;;;2.53;;
11921;SDS011;6021;51.182;3.160;2023-03-03T20:41:38;7.80;;;2.50;;
11921;SDS011;6021;51.182;3.160;2023-03-03T20:46:58;7.73;;;2.60;;
11921;SDS011;6021;51.182;3.160;2023-03-03T20:52:04;8.70;;;2.20;;
11921;SDS011;6021;51.182;3.160;2023-03-03T20:59:43;9.27;;;2.33;;
11921;SDS011;6021;51.182;3.160;2023-03-03T21:02:33;7.20;;;1.87;;
11921;SDS011;6021;51.182;3.160;2023-03-03T21:05:07;14.10;;;2.40;;
11921;SDS011;6021;51.182;3.160;2023-03-03T21:07:36;11.50;;;2.70;;
11921;SDS011;6021;51.182;3.160;2023-03-03T21:10:13;6.27;;;1.83;;
11921;SDS011;6021;51.182;3.160;2023-03-03T21:12:45;11.87;;;2.80;;
11921;SDS011;6021;51.182;3.160;2023-03-03T21:15:27;9.33;;;2.27;;
11921;SDS011;6021;51.182;3.160;2023-03-03T21:17:54;8.60;;;2.50;;
11921;SDS011;6021;51.182;3.160;2023-03-03T21:22:58;9.07;;;2.00;;
11921;SDS011;6021;51.182;3.160;2023-03-03T21:33:41;9.13;;;2.40;;
11921;SDS011;6021;51.182;3.160;2023-03-03T21:36:12;9.90;;;2.53;;
11921;SDS011;6021;51.182;3.160;2023-03-03T21:38:45;8.47;;;2.67;;